메인 페이지
METAR-TAF:

METAR-TAF

공항 :

Fort Smith, 아칸소, 미국

위도: 35-20-01N, 경도: 094-21-54W, 고도: 142m

현재 날씨관측

예보는 15분 전, 10:53시(UTC)에 발표되었습니다.
무풍
온도 2°C
습도 93%
기압 1024 hPa
시정: 0.8km
안개

METAR: KFSM 171053Z AUTO 00000KT 1/2SM R25/1400V2200FT FG VV001 02/01 A3025 RMK AO2 SLP244 T00170006

시각: 05:08 (11:08 UTC)

예보

예보는 1 시간 47분 전, 09:21시(UTC)에 발표되었습니다.
예보 대상 시간: 17일 09시부터 18일 06시까지 (UTC)
kt
시정: 0.8km
고도 200ft 상공
안개
일시적
17일 09시부터 17일 13시까지 (UTC)
시정: 0.4km
고도 100ft 상공
안개
17일 1400시부터 (UTC)
여러 방향의 바람 3kt
시정: 10km
고도 25000ft 상공 구름 보통

TAF: KFSM 170921Z 1709/1806 00000KT 1/2SM FG VV002 TEMPO 1709/1713 1/4SM FG VV001 FM171400 VRB03KT P6SM SCT250

4,000개 이상의 공항 관측 자료 및 예보 (METAR 및 TAF 보고).

지도상에서 검색 가능한 기상관측소가 노란 점과 빨간 점으로 표시되어 있습니다.

기상관측소 명을 보려면 표시 위로 마우스를 이동하세요.

날씨 관측과 예보를 보려면 클릭하세요.

지도 변경 : 확대하려면 엑스 표시가 있는 녹색 버튼, 축소하려면 빼기 표시가 있는 녹색 버튼, 다음 페이지의 지도를 보려면 녹색 화살표를 클릭하세요.


METAR-TAF: